Time;durP1;ratioP1;P1;durP2;ratioP2;P2;SDS_P1;SDS_P2;PMS_P1;PMS_P2;Temp;Humidity;BMP_temperature;BMP_pressure;BME280_temperature;BME280_humidity;BME280_pressure;Samples;Min_cycle;Max_cycle;Signal;HPM_P1;HPM_P2
2022/05/26 12:14:07;;;;;;;7.10;2.65;;;33.80;36.70;;;;;;5020795;27;86478;-59
2022/05/26 12:16:34;;;;;;;13.90;2.20;;;29.40;43.00;;;;;;4948670;28;97115;-58
2022/05/26 12:19:04;;;;;;;16.00;2.55;;;28.40;45.30;;;;;;4992211;28;86781;-56
2022/05/26 12:21:35;;;;;;;8.75;2.55;;;27.80;46.90;;;;;;4986392;28;86372;-59
2022/05/26 12:24:31;;;;;;;6.60;2.20;;;27.50;47.60;;;;;;5000519;28;88384;-56
2022/05/26 12:26:59;;;;;;;8.90;2.42;;;27.20;48.00;;;;;;4988775;28;86929;-56
2022/05/26 12:29:47;;;;;;;8.05;2.22;;;27.00;48.90;;;;;;4978935;28;87814;-63
2022/05/26 12:32:34;;;;;;;5.70;2.22;;;26.80;49.60;;;;;;4981212;28;86607;-63
2022/05/26 12:35:30;;;;;;;6.63;2.15;;;26.60;49.50;;;;;;4980810;28;87999;-60
2022/05/26 12:38:28;;;;;;;6.13;2.03;;;26.30;50.70;;;;;;4941514;28;87058;-62
2022/05/26 12:41:23;;;;;;;6.60;2.05;;;26.20;50.60;;;;;;4978969;28;87317;-62
2022/05/26 12:43:58;;;;;;;17.40;2.30;;;26.30;51.20;;;;;;4983325;28;86623;-62
2022/05/26 12:46:50;;;;;;;3.80;1.92;;;26.50;50.90;;;;;;4983081;28;87970;-62
2022/05/26 12:49:45;;;;;;;4.93;1.88;;;26.50;50.70;;;;;;4986304;28;88796;-64
2022/05/26 12:52:11;;;;;;;10.38;2.08;;;26.30;50.80;;;;;;4981450;28;87585;-64
2022/05/26 12:54:45;;;;;;;5.78;1.80;;;25.90;51.60;;;;;;4978388;28;86891;-63
2022/05/26 12:57:20;;;;;;;5.55;1.67;;;25.60;52.30;;;;;;4983032;28;87546;-66
2022/05/26 12:59:47;;;;;;;6.40;1.90;;;25.40;53.00;;;;;;4993659;28;86887;-64
2022/05/26 13:02:15;;;;;;;6.90;1.90;;;25.30;53.40;;;;;;4993301;28;88341;-63
2022/05/26 13:04:43;;;;;;;10.48;2.03;;;26.80;51.30;;;;;;4988409;28;86480;-65
2022/05/26 13:07:13;;;;;;;3.97;1.70;;;27.80;43.50;;;;;;4984295;28;87349;-65
2022/05/26 13:09:46;;;;;;;4.80;1.80;;;28.80;44.60;;;;;;4990931;28;87444;-66
2022/05/26 13:12:20;;;;;;;4.18;1.73;;;30.80;38.60;;;;;;4981115;28;86615;-68
2022/05/26 13:14:50;;;;;;;3.28;1.27;;;31.40;38.00;;;;;;4978001;28;86417;-67
2022/05/26 13:17:23;;;;;;;9.70;1.63;;;30.70;36.80;;;;;;4991902;28;87155;-65
2022/05/26 13:37:25;;;;;;;10.13;2.13;;;23.00;47.70;;;;;;6180345;22;1895171;-76
2022/05/26 13:40:16;;;;;;;14.80;1.80;;;23.00;46.30;;;;;;6250549;22;20103;-81
2022/05/26 13:42:45;;;;;;;6.72;1.50;;;22.70;47.40;;;;;;6185217;22;20021;-81
2022/05/26 13:45:30;;;;;;;7.05;1.75;;;22.30;47.60;;;;;;6138933;22;20026;-81
2022/05/26 13:48:35;;;;;;;8.05;1.60;;;21.90;48.90;;;;;;6154895;23;20438;-81
2022/05/26 13:51:10;;;;;;;11.07;1.80;;;22.30;47.70;;;;;;6157645;23;20764;-81
2022/05/26 13:53:51;;;;;;;8.73;1.65;;;21.90;49.00;;;;;;6159306;23;20410;-81
2022/05/26 13:56:30;;;;;;;8.73;1.60;;;21.60;48.10;;;;;;6183585;23;20180;-81
2022/05/26 13:59:10;;;;;;;7.63;1.65;;;21.50;51.10;;;;;;6159736;23;20030;-82
2022/05/26 14:01:48;;;;;;;6.80;1.70;;;22.20;49.60;;;;;;6160946;23;20033;-78
2022/05/26 14:04:39;;;;;;;10.05;1.70;;;22.40;49.40;;;;;;6162654;23;20052;-78
2022/05/26 14:07:30;;;;;;;4.72;1.38;;;22.20;48.90;;;;;;6180489;23;20120;-80
2022/05/26 14:10:37;;;;;;;4.47;1.20;;;21.70;49.30;;;;;;6127200;23;20332;-78
2022/05/26 14:13:15;;;;;;;5.93;1.20;;;21.60;49.50;;;;;;6187277;23;20021;-77
2022/05/26 14:15:53;;;;;;;8.20;1.40;;;21.90;47.50;;;;;;6209444;23;20055;-77
2022/05/26 14:18:33;;;;;;;6.50;1.60;;;21.90;48.40;;;;;;6189296;23;20117;-78
2022/05/26 14:21:14;;;;;;;7.30;1.20;;;22.00;47.50;;;;;;6140431;23;20622;-79
2022/05/26 14:23:55;;;;;;;9.60;1.60;;;21.30;48.50;;;;;;6206136;23;20040;-80
2022/05/26 14:26:33;;;;;;;7.15;1.40;;;21.30;48.30;;;;;;6220288;23;20081;-80
2022/05/26 14:29:03;;;;;;;13.32;1.50;;;21.10;48.30;;;;;;6221967;23;20069;-79
2022/05/26 14:31:33;;;;;;;12.98;1.45;;;21.00;51.60;;;;;;6219802;23;20776;-80
2022/05/26 14:34:07;;;;;;;7.13;1.58;;;20.90;49.30;;;;;;6204828;23;20022;-79
2022/05/26 14:36:34;;;;;;;5.53;1.17;;;21.10;49.80;;;;;;6192443;23;20018;-80
2022/05/26 14:39:00;;;;;;;6.50;1.50;;;21.00;48.40;;;;;;6167503;23;20029;-81
2022/05/26 14:41:27;;;;;;;6.88;1.20;;;21.20;50.00;;;;;;6194381;23;20013;-80
2022/05/26 14:44:03;;;;;;;4.65;1.45;;;21.20;48.10;;;;;;6196783;23;20021;-80
2022/05/26 14:46:29;;;;;;;5.22;1.50;;;21.10;50.40;;;;;;6198523;23;20028;-80
2022/05/26 14:48:56;;;;;;;5.20;1.33;;;21.30;49.30;;;;;;6193606;23;20110;-80
2022/05/26 14:51:28;;;;;;;10.10;1.42;;;21.00;50.50;;;;;;6194547;23;20942;-79
2022/05/26 14:56:42;;;;;;;9.02;1.45;;;21.00;50.60;;;;;;6194172;23;20025;-80
2022/05/26 14:59:10;;;;;;;6.45;1.63;;;21.20;50.20;;;;;;6193622;23;20052;-80
2022/05/26 15:01:37;;;;;;;6.00;1.73;;;21.40;49.20;;;;;;6191048;23;20030;-80
2022/05/26 15:04:04;;;;;;;9.35;1.40;;;21.60;50.50;;;;;;6192140;23;20026;-80
2022/05/26 15:06:38;;;;;;;9.18;1.73;;;21.80;48.40;;;;;;6189983;23;20022;-80
2022/05/26 15:09:11;;;;;;;5.30;1.08;;;21.20;48.60;;;;;;6191076;23;20030;-80
2022/05/26 15:11:38;;;;;;;5.22;1.27;;;21.00;49.20;;;;;;6191625;23;20753;-80
2022/05/26 15:14:04;;;;;;;5.68;1.40;;;21.30;50.60;;;;;;6189656;23;20026;-79
2022/05/26 15:16:31;;;;;;;5.70;1.40;;;20.70;49.50;;;;;;6190321;23;20045;-80
2022/05/26 15:19:00;;;;;;;6.20;1.52;;;20.70;51.80;;;;;;6190890;23;20033;-80
2022/05/26 15:21:27;;;;;;;9.05;1.50;;;20.80;51.20;;;;;;6192514;23;20054;-80
2022/05/26 15:23:54;;;;;;;7.68;1.70;;;20.90;50.80;;;;;;6192443;23;20030;-80
2022/05/26 15:26:23;;;;;;;8.10;1.67;;;20.80;51.70;;;;;;6194545;23;20021;-83
2022/05/26 15:28:52;;;;;;;9.18;1.75;;;20.70;51.80;;;;;;6195673;23;20061;-82
2022/05/26 15:31:20;;;;;;;8.32;1.75;;;20.50;52.00;;;;;;6199084;23;20028;-82
2022/05/26 15:33:47;;;;;;;8.35;1.70;;;20.50;53.60;;;;;;6199238;23;20040;-80
2022/05/26 15:36:19;;;;;;;8.40;1.67;;;20.20;52.40;;;;;;6206102;23;20084;-81
2022/05/26 15:38:50;;;;;;;10.70;2.03;;;20.10;54.00;;;;;;6207401;23;20049;-82
2022/05/26 15:41:18;;;;;;;9.35;1.80;;;20.20;53.70;;;;;;6208678;23;20037;-82
2022/05/26 15:43:46;;;;;;;5.47;1.30;;;20.70;53.90;;;;;;6210007;23;20014;-82
2022/05/26 15:46:18;;;;;;;6.65;1.38;;;20.90;51.30;;;;;;6204487;23;20082;-82
2022/05/26 15:48:44;;;;;;;7.10;1.45;;;21.00;52.40;;;;;;6205066;23;20065;-82
2022/05/26 15:51:11;;;;;;;8.27;1.42;;;20.80;50.90;;;;;;6207503;23;20042;-82
2022/05/26 15:53:38;;;;;;;4.65;1.23;;;20.70;52.20;;;;;;6205923;23;20096;-83
2022/05/26 15:56:07;;;;;;;4.78;1.38;;;20.70;51.50;;;;;;6203514;23;20022;-81
2022/05/26 15:58:34;;;;;;;7.35;1.83;;;20.50;51.50;;;;;;6205569;23;20073;-81
2022/05/26 16:01:01;;;;;;;9.40;1.50;;;20.30;51.70;;;;;;6207281;23;20056;-82
2022/05/26 16:03:28;;;;;;;5.35;1.20;;;20.10;52.40;;;;;;6209167;23;20049;-82
2022/05/26 16:05:55;;;;;;;6.00;1.50;;;19.90;53.10;;;;;;6211347;23;20029;-82
2022/05/26 16:08:22;;;;;;;7.95;1.63;;;20.00;53.40;;;;;;6183414;23;20040;-82
2022/05/26 16:10:49;;;;;;;7.40;1.45;;;19.90;54.80;;;;;;6209221;23;20097;-82
2022/05/26 16:13:16;;;;;;;9.02;1.58;;;20.10;54.80;;;;;;6207607;23;20100;-81
2022/05/26 16:15:48;;;;;;;10.55;2.25;;;20.10;54.50;;;;;;6205194;23;20466;-82
2022/05/26 16:18:16;;;;;;;8.32;2.00;;;19.60;55.80;;;;;;6212575;23;20028;-81
2022/05/26 16:20:43;;;;;;;10.88;1.95;;;19.60;56.20;;;;;;6211352;23;20073;-82
2022/05/26 16:23:22;;;;;;;9.35;2.30;;;19.40;56.60;;;;;;6209901;23;20033;-81
2022/05/26 16:25:52;;;;;;;12.20;2.47;;;19.40;57.40;;;;;;6206044;23;20021;-83
2022/05/26 16:28:19;;;;;;;13.90;2.25;;;19.40;57.30;;;;;;6208228;23;20005;-81
2022/05/26 16:30:51;;;;;;;11.25;1.95;;;19.50;57.40;;;;;;6211973;23;20029;-82
2022/05/26 16:33:19;;;;;;;16.23;2.17;;;19.20;57.20;;;;;;6211903;23;20061;-82
2022/05/26 16:38:34;;;;;;;19.58;2.28;;;19.00;57.60;;;;;;6203463;23;20048;-81
2022/05/26 16:41:02;;;;;;;7.85;1.80;;;19.00;57.90;;;;;;6202714;23;20073;-82
2022/05/26 16:43:29;;;;;;;9.88;2.08;;;19.30;57.50;;;;;;6199317;23;20818;-81
2022/05/26 16:45:56;;;;;;;12.13;2.20;;;19.30;57.00;;;;;;6201804;23;20022;-81
2022/05/26 16:48:24;;;;;;;12.50;2.22;;;19.20;57.30;;;;;;6176383;23;20018;-82
2022/05/26 16:50:50;;;;;;;8.45;1.88;;;19.20;57.50;;;;;;6203230;23;20018;-82
2022/05/26 16:53:20;;;;;;;11.10;2.00;;;19.00;57.90;;;;;;6204555;23;20057;-81
2022/05/26 16:55:47;;;;;;;11.55;1.92;;;18.80;57.60;;;;;;6178225;23;20037;-81
2022/05/26 16:58:16;;;;;;;7.78;1.70;;;18.60;59.10;;;;;;6202609;23;20069;-81
2022/05/26 17:00:44;;;;;;;9.13;1.67;;;18.50;59.50;;;;;;6196509;23;20029;-81
2022/05/26 17:03:11;;;;;;;12.68;2.00;;;18.40;59.40;;;;;;6176365;23;20022;-80
2022/05/26 17:05:39;;;;;;;8.00;1.88;;;18.30;59.90;;;;;;6204076;23;20018;-82
2022/05/26 17:08:09;;;;;;;9.23;2.08;;;18.40;59.50;;;;;;6207198;23;20072;-81
2022/05/26 17:10:37;;;;;;;10.75;2.38;;;18.50;59.90;;;;;;6206849;23;20071;-82
2022/05/26 17:21:21;;;;;;;7.13;1.80;;;18.40;60.40;;;;;;6181856;23;20128;-82
2022/05/26 17:23:49;;;;;;;10.65;1.73;;;18.20;60.50;;;;;;6202455;23;20043;-82
2022/05/26 17:26:27;;;;;;;10.98;1.80;;;18.30;60.30;;;;;;6206202;23;20005;-81
2022/05/26 17:28:54;;;;;;;8.00;1.98;;;18.20;60.90;;;;;;6209672;23;20074;-81
2022/05/26 17:31:21;;;;;;;7.95;1.77;;;18.30;61.10;;;;;;6208174;23;20030;-81
2022/05/26 17:33:48;;;;;;;11.02;1.77;;;18.30;61.00;;;;;;6207578;23;20077;-81
2022/05/26 17:36:16;;;;;;;9.02;1.90;;;18.30;61.50;;;;;;6208475;23;20018;-81
2022/05/26 17:38:44;;;;;;;9.75;2.13;;;18.20;62.10;;;;;;6207611;23;20109;-80
2022/05/26 17:41:36;;;;;;;10.35;2.30;;;18.20;62.40;;;;;;6205077;23;20771;-81
2022/05/26 17:44:11;;;;;;;18.10;3.17;;;18.10;63.20;;;;;;6206455;23;20049;-81
2022/05/26 17:46:38;;;;;;;14.60;2.17;;;17.90;64.00;;;;;;6205842;23;20025;-81
2022/05/26 17:49:09;;;;;;;14.40;2.67;;;17.90;64.10;;;;;;6178834;23;20025;-81
2022/05/26 17:51:38;;;;;;;12.00;2.38;;;17.90;64.60;;;;;;6202157;23;20025;-80
2022/05/26 17:54:17;;;;;;;10.68;2.22;;;17.70;64.60;;;;;;6177028;23;20018;-81
2022/05/26 17:56:45;;;;;;;9.85;2.00;;;17.70;65.40;;;;;;6207942;23;20036;-81
2022/05/26 17:59:14;;;;;;;18.05;2.30;;;17.60;65.20;;;;;;6206126;23;20077;-81
2022/05/26 18:01:41;;;;;;;10.45;1.80;;;17.70;65.50;;;;;;6209036;23;20009;-81
2022/05/26 18:04:09;;;;;;;8.95;2.20;;;17.70;65.70;;;;;;6208373;23;20009;-81
2022/05/26 18:06:36;;;;;;;9.23;1.95;;;17.70;66.00;;;;;;6203299;23;20018;-83
2022/05/26 18:09:03;;;;;;;18.35;3.15;;;17.70;66.50;;;;;;6199294;23;20968;-83
2022/05/26 18:11:30;;;;;;;13.98;2.40;;;17.60;66.40;;;;;;6194472;23;20750;-84
2022/05/26 18:13:56;;;;;;;9.38;2.25;;;17.50;66.60;;;;;;6189216;23;20045;-83
2022/05/26 18:16:29;;;;;;;8.10;1.90;;;17.40;67.10;;;;;;6186937;23;20835;-83
2022/05/26 18:19:08;;;;;;;12.98;2.42;;;17.30;67.70;;;;;;6205806;23;20918;-87
2022/05/26 18:21:43;;;;;;;10.68;2.17;;;17.30;67.90;;;;;;6206038;23;20033;-86
2022/05/26 18:24:12;;;;;;;14.07;1.83;;;17.30;67.80;;;;;;6203642;23;20036;-84
2022/05/26 18:26:39;;;;;;;13.23;2.10;;;17.30;67.70;;;;;;6206037;23;20002;-85
2022/05/26 18:29:09;;;;;;;9.13;1.75;;;17.20;67.80;;;;;;6208484;23;20070;-86
2022/05/26 18:31:47;;;;;;;11.30;2.58;;;17.20;67.80;;;;;;6209731;23;20025;-85
2022/05/26 18:34:25;;;;;;;15.23;2.50;;;17.10;68.10;;;;;;6180870;23;20010;-85
2022/05/26 18:36:53;;;;;;;8.70;2.53;;;17.00;68.70;;;;;;6213847;23;20018;-85
2022/05/26 18:39:29;;;;;;;8.55;2.20;;;16.90;69.00;;;;;;6210180;23;20005;-84
2022/05/26 18:41:56;;;;;;;10.45;2.05;;;16.90;68.90;;;;;;6215302;23;20001;-84
2022/05/26 18:44:23;;;;;;;9.20;2.13;;;16.80;69.30;;;;;;6215429;23;20014;-85
2022/05/26 18:46:52;;;;;;;10.88;2.35;;;16.80;69.80;;;;;;6190040;23;20077;-84
2022/05/26 18:49:23;;;;;;;13.70;2.53;;;16.80;70.10;;;;;;6215409;23;20109;-84
2022/05/26 18:51:50;;;;;;;9.55;2.05;;;16.80;69.90;;;;;;6190110;23;20068;-84
2022/05/26 18:54:17;;;;;;;12.88;1.83;;;16.80;69.80;;;;;;6213966;23;19998;-83
2022/05/26 18:56:44;;;;;;;10.10;1.90;;;16.70;70.10;;;;;;6214880;23;20022;-84
2022/05/26 18:59:10;;;;;;;9.75;1.85;;;16.70;70.20;;;;;;6189472;23;20029;-84
2022/05/26 19:01:42;;;;;;;13.35;2.55;;;16.70;70.60;;;;;;6189114;23;20013;-85
2022/05/26 19:04:14;;;;;;;9.52;2.17;;;16.60;70.50;;;;;;6187124;23;20110;-85
2022/05/26 19:06:41;;;;;;;9.90;2.45;;;16.60;70.60;;;;;;6215249;23;19998;-85
2022/05/26 19:09:08;;;;;;;10.05;2.10;;;16.60;70.40;;;;;;6215238;23;20006;-85
2022/05/26 19:11:45;;;;;;;7.53;2.08;;;16.50;70.50;;;;;;6188100;23;20068;-83
2022/05/26 19:14:31;;;;;;;10.65;1.98;;;16.50;71.30;;;;;;6191165;23;20006;-84
2022/05/26 19:17:03;;;;;;;11.98;2.13;;;16.50;71.60;;;;;;6215323;23;20014;-83
2022/05/26 19:19:30;;;;;;;10.75;2.03;;;16.40;71.50;;;;;;6213895;23;20021;-85
2022/05/26 19:22:00;;;;;;;9.80;2.13;;;16.40;71.50;;;;;;6212962;23;20016;-85
2022/05/26 19:24:28;;;;;;;6.35;1.77;;;16.40;71.60;;;;;;6215693;23;20053;-85
2022/05/26 19:27:01;;;;;;;8.45;1.90;;;16.30;71.90;;;;;;6188753;23;19998;-84
2022/05/26 19:29:36;;;;;;;10.45;1.60;;;16.30;71.90;;;;;;6215277;23;20028;-84
2022/05/26 19:32:05;;;;;;;11.07;1.92;;;16.30;72.30;;;;;;6188566;23;20001;-84
2022/05/26 19:34:36;;;;;;;11.82;2.17;;;16.30;72.60;;;;;;6213734;23;20006;-84
2022/05/26 19:37:04;;;;;;;15.73;2.33;;;16.30;72.10;;;;;;6185740;23;20516;-79
2022/05/26 19:39:31;;;;;;;8.10;2.17;;;16.20;72.90;;;;;;6180393;23;20449;-79
2022/05/26 19:42:00;;;;;;;14.25;1.80;;;16.20;72.30;;;;;;6180668;23;20068;-78
2022/05/26 19:44:40;;;;;;;6.45;1.90;;;16.20;72.50;;;;;;6181033;23;20025;-78
2022/05/26 19:47:08;;;;;;;7.80;1.70;;;16.20;72.60;;;;;;6180699;23;20084;-79
2022/05/26 19:49:36;;;;;;;11.52;2.05;;;16.20;72.90;;;;;;6155198;23;20108;-79
2022/05/26 19:52:04;;;;;;;9.30;1.88;;;16.20;72.90;;;;;;6181092;23;20048;-78
2022/05/26 19:54:31;;;;;;;7.57;2.05;;;16.20;73.00;;;;;;6129651;23;20949;-78
2022/05/26 19:57:15;;;;;;;8.23;2.00;;;16.20;73.20;;;;;;6180584;23;20104;-79
2022/05/26 19:59:42;;;;;;;6.25;1.65;;;16.10;73.50;;;;;;6180019;23;20029;-79
2022/05/26 20:02:09;;;;;;;9.27;1.90;;;16.10;72.90;;;;;;6180874;23;20072;-79
2022/05/26 20:04:35;;;;;;;8.30;1.67;;;16.10;72.80;;;;;;6181573;23;20025;-79
2022/05/26 20:07:03;;;;;;;8.52;1.90;;;16.10;72.50;;;;;;6180476;23;20026;-78
2022/05/26 20:09:30;;;;;;;8.02;2.05;;;16.10;72.60;;;;;;6153893;23;20025;-79
2022/05/26 20:11:57;;;;;;;8.80;1.83;;;16.10;73.00;;;;;;6181297;23;20131;-80
2022/05/26 20:14:23;;;;;;;6.47;1.58;;;16.10;73.30;;;;;;6181373;23;20021;-78
2022/05/26 20:16:50;;;;;;;4.75;1.30;;;16.10;72.90;;;;;;6180485;23;20289;-78
2022/05/26 20:19:17;;;;;;;7.93;1.75;;;16.00;73.10;;;;;;6181007;23;20368;-79
2022/05/26 20:21:44;;;;;;;10.65;1.90;;;16.00;73.00;;;;;;6129200;23;20104;-80
2022/05/26 20:24:11;;;;;;;8.98;2.17;;;16.00;73.40;;;;;;6180553;23;20018;-79
2022/05/26 20:26:39;;;;;;;7.25;1.73;;;16.00;74.50;;;;;;6183130;23;20036;-79
2022/05/26 20:31:51;;;;;;;6.25;2.55;;;15.80;75.90;;;;;;6181068;23;20038;-79
2022/05/26 20:34:18;;;;;;;4.22;1.60;;;15.70;75.50;;;;;;6186918;23;20021;-79
2022/05/26 20:36:47;;;;;;;10.32;2.08;;;15.60;75.90;;;;;;6200503;23;20044;-78
2022/05/26 20:39:20;;;;;;;7.28;1.75;;;15.60;76.60;;;;;;6189844;23;20025;-80
2022/05/26 20:41:47;;;;;;;6.15;1.70;;;15.60;76.00;;;;;;6192855;23;20060;-79
2022/05/26 20:44:15;;;;;;;7.55;1.70;;;15.60;75.90;;;;;;6179658;23;20100;-78
2022/05/26 20:46:42;;;;;;;8.65;1.88;;;15.50;76.30;;;;;;6191884;23;20459;-79
2022/05/26 20:49:36;;;;;;;6.45;2.40;;;15.50;76.10;;;;;;6181731;23;20428;-79
2022/05/26 20:52:06;;;;;;;9.68;2.33;;;15.50;76.10;;;;;;6168574;23;20037;-79
2022/05/26 20:54:33;;;;;;;8.18;1.83;;;15.60;76.50;;;;;;6180544;23;20032;-80
2022/05/26 20:57:03;;;;;;;6.43;1.83;;;15.50;76.10;;;;;;6154392;23;20854;-78
2022/05/26 20:59:29;;;;;;;4.90;1.77;;;15.50;76.00;;;;;;6181247;23;20724;-80
2022/05/26 21:01:56;;;;;;;11.57;2.42;;;15.60;76.30;;;;;;6180274;23;20033;-79
2022/05/26 21:04:23;;;;;;;6.82;1.88;;;15.50;75.90;;;;;;6181066;23;20028;-79
2022/05/26 21:06:49;;;;;;;8.80;2.13;;;15.60;76.00;;;;;;6180829;23;20035;-79
2022/05/26 21:09:18;;;;;;;8.27;2.40;;;15.50;76.10;;;;;;6180228;23;20025;-79
2022/05/26 21:11:45;;;;;;;8.95;2.67;;;15.50;75.80;;;;;;6180755;23;20029;-79
2022/05/26 21:14:11;;;;;;;9.27;1.95;;;15.50;76.00;;;;;;6180357;23;20053;-79
2022/05/26 21:16:38;;;;;;;7.50;2.05;;;15.50;76.00;;;;;;6181353;23;20490;-79
2022/05/26 21:19:05;;;;;;;9.05;2.30;;;15.50;76.20;;;;;;6181077;23;20116;-79
2022/05/26 21:21:31;;;;;;;5.90;2.20;;;15.40;76.40;;;;;;6180556;23;20025;-79
2022/05/26 21:23:58;;;;;;;11.50;2.65;;;15.50;76.00;;;;;;6154535;23;20029;-79
2022/05/26 21:26:29;;;;;;;11.32;2.58;;;15.40;76.00;;;;;;6181658;23;20443;-80
2022/05/26 21:28:55;;;;;;;7.30;2.35;;;15.40;76.00;;;;;;6155206;23;20024;-79
2022/05/26 21:31:22;;;;;;;6.75;2.28;;;15.40;76.10;;;;;;6179944;23;20078;-79
2022/05/26 21:33:49;;;;;;;6.60;2.30;;;15.50;76.30;;;;;;6180404;23;20753;-79
2022/05/26 21:36:16;;;;;;;9.30;2.25;;;15.40;76.20;;;;;;6180268;23;20040;-79
2022/05/26 21:38:43;;;;;;;7.50;2.25;;;15.40;76.50;;;;;;6180217;23;20030;-79
2022/05/26 21:41:10;;;;;;;7.72;2.35;;;15.40;77.00;;;;;;6180606;23;20034;-78
2022/05/26 21:43:40;;;;;;;7.13;2.30;;;15.40;76.40;;;;;;6179910;23;20581;-79
2022/05/26 21:46:10;;;;;;;10.98;2.50;;;15.40;76.20;;;;;;6181382;23;20032;-80
2022/05/26 21:48:38;;;;;;;5.88;2.40;;;15.40;76.40;;;;;;6181935;23;20022;-79
2022/05/26 21:51:11;;;;;;;6.50;2.05;;;15.40;76.40;;;;;;6180777;23;20765;-79
2022/05/26 21:53:38;;;;;;;;;;;15.30;76.50;;;;;;6154178;23;20032;-79
2022/05/26 21:56:05;;;;;;;6.40;2.40;;;15.30;77.00;;;;;;6154200;23;19927;-79
2022/05/26 21:58:32;;;;;;;9.07;2.58;;;15.30;76.60;;;;;;6182571;23;20032;-79
2022/05/26 22:01:09;;;;;;;7.85;2.70;;;15.20;76.50;;;;;;6181871;23;20465;-78
2022/05/26 22:03:50;;;;;;;7.45;2.22;;;15.20;76.90;;;;;;6182492;23;20032;-78
2022/05/26 22:12:26;;;;;;;6.45;2.85;;;15.10;77.30;;;;;;6061264;23;20601;-79
2022/05/26 22:14:54;;;;;;;10.93;3.80;;;15.20;77.20;;;;;;6060956;23;20480;-79
2022/05/26 22:17:21;;;;;;;14.00;3.10;;;15.10;77.50;;;;;;6061086;23;20147;-78
2022/05/26 22:19:48;;;;;;;8.10;2.90;;;15.10;77.60;;;;;;6060323;23;20032;-79
2022/05/26 22:22:25;;;;;;;10.55;3.55;;;15.10;77.40;;;;;;6061379;23;20193;-79
2022/05/26 22:24:54;;;;;;;10.48;3.53;;;15.10;77.60;;;;;;6060398;23;20031;-78
2022/05/26 22:27:25;;;;;;;8.43;3.20;;;15.10;77.40;;;;;;6060717;23;20114;-78
2022/05/26 22:29:52;;;;;;;16.40;3.50;;;15.10;77.60;;;;;;6059517;23;20027;-78
2022/05/26 22:32:25;;;;;;;8.88;3.47;;;15.10;77.80;;;;;;6060063;23;20035;-79
2022/05/26 22:37:36;;;;;;;8.07;2.78;;;15.10;78.00;;;;;;6059973;23;20036;-79
2022/05/26 22:40:05;;;;;;;10.88;2.58;;;15.10;78.40;;;;;;6059175;23;20109;-79
2022/05/26 22:42:39;;;;;;;12.15;3.35;;;15.10;78.40;;;;;;6062792;23;20033;-78
2022/05/26 22:45:10;;;;;;;8.15;2.40;;;15.10;78.50;;;;;;6155548;23;20036;-78
2022/05/26 22:47:53;;;;;;;6.75;2.63;;;15.10;78.50;;;;;;6181392;23;20901;-78
2022/05/26 22:50:20;;;;;;;11.77;3.15;;;15.10;78.60;;;;;;6182181;23;20487;-79
2022/05/26 22:52:48;;;;;;;15.57;3.83;;;15.10;78.60;;;;;;6180745;23;20129;-79
2022/05/26 22:55:14;;;;;;;7.65;2.50;;;15.10;78.60;;;;;;6181113;23;20026;-79
2022/05/26 22:57:42;;;;;;;14.00;2.90;;;15.10;78.60;;;;;;6182554;23;20413;-79
2022/05/26 23:00:12;;;;;;;12.77;2.50;;;15.10;78.70;;;;;;6181261;23;20108;-78
2022/05/26 23:02:45;;;;;;;15.52;2.88;;;15.10;78.70;;;;;;6182394;23;20109;-78
2022/05/26 23:05:12;;;;;;;11.02;2.95;;;15.10;79.00;;;;;;6181745;23;20770;-79
2022/05/26 23:07:39;;;;;;;11.13;3.28;;;15.10;78.70;;;;;;6182282;23;20781;-79
2022/05/26 23:10:08;;;;;;;12.10;3.03;;;15.10;78.80;;;;;;6181978;23;20034;-78
2022/05/26 23:12:36;;;;;;;10.27;2.15;;;15.10;78.70;;;;;;6185250;23;20100;-80
2022/05/26 23:15:05;;;;;;;16.88;3.17;;;15.10;79.40;;;;;;6156083;23;20032;-78
2022/05/26 23:17:31;;;;;;;12.57;2.30;;;15.20;78.90;;;;;;6181665;23;20409;-79
2022/05/26 23:19:58;;;;;;;14.90;2.78;;;15.10;79.10;;;;;;6182683;23;20097;-79
2022/05/26 23:22:25;;;;;;;11.27;2.53;;;15.10;79.20;;;;;;6181548;23;20025;-79
2022/05/26 23:24:51;;;;;;;10.45;2.25;;;15.10;79.40;;;;;;6182040;23;20486;-79
2022/05/26 23:27:18;;;;;;;11.85;3.17;;;15.20;79.60;;;;;;6182835;23;20033;-78
2022/05/26 23:29:45;;;;;;;10.30;2.80;;;15.20;79.40;;;;;;6183385;23;20057;-78
2022/05/26 23:32:12;;;;;;;12.57;3.20;;;15.20;79.50;;;;;;6182822;23;20108;-78
2022/05/26 23:34:39;;;;;;;15.30;3.00;;;15.20;79.90;;;;;;6183133;23;20109;-80
2022/05/26 23:37:10;;;;;;;12.05;2.97;;;15.20;81.40;;;;;;6182486;23;20036;-79
2022/05/26 23:39:37;;;;;;;16.95;3.05;;;15.00;84.00;;;;;;6133061;23;20636;-79
2022/05/26 23:44:49;;;;;;;15.50;3.78;;;14.70;88.20;;;;;;6173789;23;20076;-79
2022/05/26 23:47:16;;;;;;;21.00;3.90;;;14.60;91.20;;;;;;6192100;23;20100;-78
2022/05/26 23:49:43;;;;;;;20.23;4.40;;;14.50;91.70;;;;;;6190769;23;20018;-78
2022/05/26 23:52:10;;;;;;;20.92;4.25;;;14.40;91.50;;;;;;6201505;23;20061;-78
2022/05/26 23:54:36;;;;;;;23.55;5.43;;;14.30;92.60;;;;;;6190605;23;20052;-79
2022/05/26 23:59:49;;;;;;;23.92;5.35;;;14.10;94.70;;;;;;6160464;23;20130;-77
